XNA weather

Northwest Arkansas Regional Airport
Fayetteville/Springdale/Rogers, Arkansas, United States

Public forecast

Using degrees Fahrenheit for public forecast. Weather courtesy of forecast.io.

METAR (pilot weather report)

Retrieved 2019/06/16 23:53 UTC (29 minutes ago):

KXNA 162353Z 22003KT 10SM CLR 26/18 A2984 RMK AO2 SLP092 T02560183 10278 20256 56016

TAF (pilot weather forecast)

Forecast is more than 12 hours old.

Retrieved 2019/06/16 00:22 UTC (1 day ago):

TAF KXNA 162320Z 1700/1724 20005KT P6SM SCT050 BKN250 FM170400 VRB03KT P6SM VCTS SCT025 BKN040CB TEMPO 1704/1708 5SM -TSRA BKN025CB FM170800 VRB03KT 4SM -SHRA BR OVC015 FM171600 VRB05KT P6SM BKN025